sensor_id;sensor_type;location;lat;lon;timestamp;pressure;altitude;pressure_sealevel;temperature;humidity
69980;BME280;57318;56.232;43.944;2022-09-23T00:00:12;98849.75;;;11.49;91.40
69980;BME280;57318;56.232;43.944;2022-09-23T00:02:38;98848.06;;;11.48;91.59
69980;BME280;57318;56.232;43.944;2022-09-23T00:05:05;98840.75;;;11.50;91.56
69980;BME280;57318;56.232;43.944;2022-09-23T00:07:31;98833.78;;;11.49;91.58
69980;BME280;57318;56.232;43.944;2022-09-23T00:09:56;98830.69;;;11.44;91.21
69980;BME280;57318;56.232;43.944;2022-09-23T00:12:23;98823.69;;;11.43;91.47
69980;BME280;57318;56.232;43.944;2022-09-23T00:14:49;98822.69;;;11.44;91.57
69980;BME280;57318;56.232;43.944;2022-09-23T00:17:14;98829.84;;;11.44;91.59
69980;BME280;57318;56.232;43.944;2022-09-23T00:19:40;98820.03;;;11.44;91.83
69980;BME280;57318;56.232;43.944;2022-09-23T00:22:06;98821.19;;;11.42;91.63
69980;BME280;57318;56.232;43.944;2022-09-23T00:24:32;98817.53;;;11.43;91.77
69980;BME280;57318;56.232;43.944;2022-09-23T00:26:58;98819.34;;;11.42;91.72
69980;BME280;57318;56.232;43.944;2022-09-23T00:29:24;98819.50;;;11.41;91.83
69980;BME280;57318;56.232;43.944;2022-09-23T00:31:50;98815.16;;;11.40;91.67
69980;BME280;57318;56.232;43.944;2022-09-23T00:34:15;98812.19;;;11.43;91.89
69980;BME280;57318;56.232;43.944;2022-09-23T00:36:41;98812.19;;;11.43;91.55
69980;BME280;57318;56.232;43.944;2022-09-23T00:39:07;98816.16;;;11.38;91.61
69980;BME280;57318;56.232;43.944;2022-09-23T00:41:34;98812.78;;;11.36;91.66
69980;BME280;57318;56.232;43.944;2022-09-23T00:44:00;98811.94;;;11.36;91.46
69980;BME280;57318;56.232;43.944;2022-09-23T00:46:36;98816.56;;;11.34;91.43
69980;BME280;57318;56.232;43.944;2022-09-23T00:49:10;98815.91;;;11.32;91.88
69980;BME280;57318;56.232;43.944;2022-09-23T00:51:39;98819.94;;;11.36;91.83
69980;BME280;57318;56.232;43.944;2022-09-23T00:54:08;98823.28;;;11.38;91.84
69980;BME280;57318;56.232;43.944;2022-09-23T00:56:35;98816.97;;;11.39;91.93
69980;BME280;57318;56.232;43.944;2022-09-23T00:59:02;98815.28;;;11.38;91.81
69980;BME280;57318;56.232;43.944;2022-09-23T01:01:28;98806.34;;;11.39;91.52
69980;BME280;57318;56.232;43.944;2022-09-23T01:03:54;98805.66;;;11.37;91.69
69980;BME280;57318;56.232;43.944;2022-09-23T01:06:21;98805.81;;;11.35;91.38
69980;BME280;57318;56.232;43.944;2022-09-23T01:08:47;98813.63;;;11.37;91.62
69980;BME280;57318;56.232;43.944;2022-09-23T01:11:38;98805.13;;;11.33;91.48
69980;BME280;57318;56.232;43.944;2022-09-23T01:22:07;98803.44;;;11.23;91.45
69980;BME280;57318;56.232;43.944;2022-09-23T01:27:47;98794.34;;;11.15;91.62
69980;BME280;57318;56.232;43.944;2022-09-23T01:33:28;98793.25;;;11.08;91.99
69980;BME280;57318;56.232;43.944;2022-09-23T01:38:46;98791.28;;;11.10;92.25
69980;BME280;57318;56.232;43.944;2022-09-23T01:44:36;98778.41;;;11.15;91.88
69980;BME280;57318;56.232;43.944;2022-09-23T01:47:13;98785.41;;;11.16;92.03
69980;BME280;57318;56.232;43.944;2022-09-23T01:49:43;98781.75;;;11.17;92.09
69980;BME280;57318;56.232;43.944;2022-09-23T01:52:34;98779.22;;;11.16;91.97
69980;BME280;57318;56.232;43.944;2022-09-23T01:57:40;98775.59;;;11.17;92.04
69980;BME280;57318;56.232;43.944;2022-09-23T02:00:14;98778.81;;;11.20;92.03
69980;BME280;57318;56.232;43.944;2022-09-23T02:02:51;98769.84;;;11.22;92.29
69980;BME280;57318;56.232;43.944;2022-09-23T02:05:29;98776.84;;;11.23;92.23
69980;BME280;57318;56.232;43.944;2022-09-23T02:08:07;98779.09;;;11.27;92.16
69980;BME280;57318;56.232;43.944;2022-09-23T02:10:41;98780.88;;;11.27;92.13
69980;BME280;57318;56.232;43.944;2022-09-23T02:13:16;98774.75;;;11.26;91.94
69980;BME280;57318;56.232;43.944;2022-09-23T02:15:51;98773.47;;;11.20;92.06
69980;BME280;57318;56.232;43.944;2022-09-23T02:18:25;98772.22;;;11.25;92.04
69980;BME280;57318;56.232;43.944;2022-09-23T02:20:56;98773.06;;;11.25;92.04
69980;BME280;57318;56.232;43.944;2022-09-23T02:23:32;98766.63;;;11.28;91.88
69980;BME280;57318;56.232;43.944;2022-09-23T02:28:48;98762.69;;;11.32;91.90
69980;BME280;57318;56.232;43.944;2022-09-23T02:34:44;98761.16;;;11.29;91.84
69980;BME280;57318;56.232;43.944;2022-09-23T02:37:47;98762.69;;;11.32;91.87
69980;BME280;57318;56.232;43.944;2022-09-23T02:40:20;98755.97;;;11.28;91.72
69980;BME280;57318;56.232;43.944;2022-09-23T02:43:20;98746.59;;;11.24;91.72
69980;BME280;57318;56.232;43.944;2022-09-23T02:45:48;98747.31;;;11.26;91.58
69980;BME280;57318;56.232;43.944;2022-09-23T02:48:20;98748.28;;;11.25;91.61
69980;BME280;57318;56.232;43.944;2022-09-23T02:50:47;98739.63;;;11.23;91.83
69980;BME280;57318;56.232;43.944;2022-09-23T02:53:14;98741.28;;;11.24;91.56
69980;BME280;57318;56.232;43.944;2022-09-23T02:55:43;98732.47;;;11.23;91.75
69980;BME280;57318;56.232;43.944;2022-09-23T02:58:11;98742.81;;;11.26;91.53
69980;BME280;57318;56.232;43.944;2022-09-23T03:01:12;98741.13;;;11.25;91.35
69980;BME280;57318;56.232;43.944;2022-09-23T03:03:46;98740.31;;;11.25;91.56
69980;BME280;57318;56.232;43.944;2022-09-23T03:06:55;98741.13;;;11.25;91.45
69980;BME280;57318;56.232;43.944;2022-09-23T03:09:33;98739.91;;;11.19;91.42
69980;BME280;57318;56.232;43.944;2022-09-23T03:17:19;98744.09;;;11.22;91.86
69980;BME280;57318;56.232;43.944;2022-09-23T03:20:06;98744.38;;;11.19;91.95
69980;BME280;57318;56.232;43.944;2022-09-23T03:22:37;98748.03;;;11.18;91.71
69980;BME280;57318;56.232;43.944;2022-09-23T03:25:08;98734.59;;;11.19;91.66
69980;BME280;57318;56.232;43.944;2022-09-23T03:27:37;98737.25;;;11.19;91.62
69980;BME280;57318;56.232;43.944;2022-09-23T03:30:06;98744.22;;;11.20;91.71
69980;BME280;57318;56.232;43.944;2022-09-23T03:32:33;98740.59;;;11.22;91.80
69980;BME280;57318;56.232;43.944;2022-09-23T03:35:03;98756.25;;;11.25;91.66
69980;BME280;57318;56.232;43.944;2022-09-23T03:37:33;98760.91;;;11.23;91.75
69980;BME280;57318;56.232;43.944;2022-09-23T03:40:18;98756.56;;;11.22;91.52
69980;BME280;57318;56.232;43.944;2022-09-23T03:42:45;98761.59;;;11.25;91.41
69980;BME280;57318;56.232;43.944;2022-09-23T03:45:18;98758.25;;;11.23;91.54
69980;BME280;57318;56.232;43.944;2022-09-23T03:47:45;98761.03;;;11.21;91.85
69980;BME280;57318;56.232;43.944;2022-09-23T03:50:12;98764.94;;;11.27;91.51
69980;BME280;57318;56.232;43.944;2022-09-23T03:52:38;98762.56;;;11.24;91.41
69980;BME280;57318;56.232;43.944;2022-09-23T03:55:05;98758.94;;;11.25;91.49
69980;BME280;57318;56.232;43.944;2022-09-23T03:57:31;98753.75;;;11.23;91.51
69980;BME280;57318;56.232;43.944;2022-09-23T03:59:57;98750.56;;;11.19;91.36
69980;BME280;57318;56.232;43.944;2022-09-23T04:02:23;98754.88;;;11.20;91.36
69980;BME280;57318;56.232;43.944;2022-09-23T04:04:48;98759.91;;;11.24;91.21
69980;BME280;57318;56.232;43.944;2022-09-23T04:07:14;98762.16;;;11.18;91.41
69980;BME280;57318;56.232;43.944;2022-09-23T04:09:40;98762.69;;;11.22;91.54
69980;BME280;57318;56.232;43.944;2022-09-23T04:12:06;98764.38;;;11.23;91.27
69980;BME280;57318;56.232;43.944;2022-09-23T04:14:32;98765.50;;;11.20;91.33
69980;BME280;57318;56.232;43.944;2022-09-23T04:16:58;98762.16;;;11.18;91.17
69980;BME280;57318;56.232;43.944;2022-09-23T04:19:23;98768.03;;;11.12;91.42
69980;BME280;57318;56.232;43.944;2022-09-23T04:21:49;98775.06;;;11.13;91.67
69980;BME280;57318;56.232;43.944;2022-09-23T04:24:15;98770.69;;;11.12;91.43
69980;BME280;57318;56.232;43.944;2022-09-23T04:26:42;98775.75;;;11.15;91.26
69980;BME280;57318;56.232;43.944;2022-09-23T04:29:08;98760.75;;;11.14;91.34
69980;BME280;57318;56.232;43.944;2022-09-23T04:31:34;98753.78;;;11.13;91.24
69980;BME280;57318;56.232;43.944;2022-09-23T04:34:00;98755.72;;;11.11;91.33
69980;BME280;57318;56.232;43.944;2022-09-23T04:36:26;98763.41;;;11.14;91.41
69980;BME280;57318;56.232;43.944;2022-09-23T04:38:53;98752.09;;;11.12;91.65
69980;BME280;57318;56.232;43.944;2022-09-23T04:41:19;98753.63;;;11.15;91.69
69980;BME280;57318;56.232;43.944;2022-09-23T04:43:45;98760.19;;;11.20;91.54
69980;BME280;57318;56.232;43.944;2022-09-23T04:46:13;98762.41;;;11.25;91.22
69980;BME280;57318;56.232;43.944;2022-09-23T04:48:39;98761.97;;;11.30;90.75
69980;BME280;57318;56.232;43.944;2022-09-23T04:51:12;98760.91;;;11.23;90.83
69980;BME280;57318;56.232;43.944;2022-09-23T04:53:40;98758.94;;;11.25;90.68
69980;BME280;57318;56.232;43.944;2022-09-23T04:56:09;98756.13;;;11.26;90.87
69980;BME280;57318;56.232;43.944;2022-09-23T04:58:36;98757.97;;;11.26;90.55
69980;BME280;57318;56.232;43.944;2022-09-23T05:01:09;98756.13;;;11.26;90.46
69980;BME280;57318;56.232;43.944;2022-09-23T05:03:35;98755.44;;;11.24;90.43
69980;BME280;57318;56.232;43.944;2022-09-23T05:06:01;98753.22;;;11.19;90.58
69980;BME280;57318;56.232;43.944;2022-09-23T05:08:27;98756.41;;;11.23;90.74
69980;BME280;57318;56.232;43.944;2022-09-23T05:10:57;98763.00;;;11.29;90.67
69980;BME280;57318;56.232;43.944;2022-09-23T05:13:23;98759.47;;;11.28;90.69
69980;BME280;57318;56.232;43.944;2022-09-23T05:15:48;98762.69;;;11.32;90.72
69980;BME280;57318;56.232;43.944;2022-09-23T05:18:14;98766.72;;;11.36;90.78
69980;BME280;57318;56.232;43.944;2022-09-23T05:20:40;98763.94;;;11.37;90.82
69980;BME280;57318;56.232;43.944;2022-09-23T05:23:05;98762.81;;;11.40;90.59
69980;BME280;57318;56.232;43.944;2022-09-23T05:25:31;98766.16;;;11.42;90.78
69980;BME280;57318;56.232;43.944;2022-09-23T05:27:56;98754.25;;;11.46;90.54
69980;BME280;57318;56.232;43.944;2022-09-23T05:30:22;98759.00;;;11.52;90.77
69980;BME280;57318;56.232;43.944;2022-09-23T05:32:48;98751.97;;;11.51;90.47
69980;BME280;57318;56.232;43.944;2022-09-23T05:35:13;98754.50;;;11.53;90.10
69980;BME280;57318;56.232;43.944;2022-09-23T05:37:39;98760.94;;;11.50;90.34
69980;BME280;57318;56.232;43.944;2022-09-23T05:40:05;98757.84;;;11.55;90.61
69980;BME280;57318;56.232;43.944;2022-09-23T05:42:30;98768.47;;;11.55;90.48
69980;BME280;57318;56.232;43.944;2022-09-23T05:44:56;98762.63;;;11.51;90.60
69980;BME280;57318;56.232;43.944;2022-09-23T05:47:22;98762.47;;;11.53;90.68
69980;BME280;57318;56.232;43.944;2022-09-23T05:49:47;98756.72;;;11.58;90.62
69980;BME280;57318;56.232;43.944;2022-09-23T05:52:13;98765.09;;;11.63;90.47
69980;BME280;57318;56.232;43.944;2022-09-23T05:54:38;98761.56;;;11.72;90.54
69980;BME280;57318;56.232;43.944;2022-09-23T05:57:05;98752.31;;;11.76;90.48
69980;BME280;57318;56.232;43.944;2022-09-23T05:59:31;98763.09;;;11.74;90.16
69980;BME280;57318;56.232;43.944;2022-09-23T06:01:57;98750.91;;;11.72;90.04
69980;BME280;57318;56.232;43.944;2022-09-23T06:04:23;98750.91;;;11.72;90.06
69980;BME280;57318;56.232;43.944;2022-09-23T06:06:49;98745.19;;;11.67;89.81
69980;BME280;57318;56.232;43.944;2022-09-23T06:09:14;98746.56;;;11.71;89.97
69980;BME280;57318;56.232;43.944;2022-09-23T06:11:40;98744.63;;;11.73;90.17
69980;BME280;57318;56.232;43.944;2022-09-23T06:14:08;98745.28;;;11.75;89.94
69980;BME280;57318;56.232;43.944;2022-09-23T06:16:36;98744.03;;;11.79;89.72
69980;BME280;57318;56.232;43.944;2022-09-23T06:19:02;98747.47;;;11.89;89.54
69980;BME280;57318;56.232;43.944;2022-09-23T06:21:32;98741.97;;;12.01;89.34
69980;BME280;57318;56.232;43.944;2022-09-23T06:23:58;98738.56;;;12.08;89.08
69980;BME280;57318;56.232;43.944;2022-09-23T06:26:25;98737.28;;;12.13;88.64
69980;BME280;57318;56.232;43.944;2022-09-23T06:28:51;98744.88;;;12.07;88.63
69980;BME280;57318;56.232;43.944;2022-09-23T06:31:17;98745.88;;;12.06;88.65
69980;BME280;57318;56.232;43.944;2022-09-23T06:33:44;98741.66;;;12.04;88.81
69980;BME280;57318;56.232;43.944;2022-09-23T06:36:11;98742.81;;;12.01;89.17
69980;BME280;57318;56.232;43.944;2022-09-23T06:38:41;98746.75;;;11.97;88.99
69980;BME280;57318;56.232;43.944;2022-09-23T06:41:12;98749.81;;;12.02;89.12
69980;BME280;57318;56.232;43.944;2022-09-23T06:43:38;98749.56;;;11.96;89.00
69980;BME280;57318;56.232;43.944;2022-09-23T06:46:05;98752.75;;;11.99;89.03
69980;BME280;57318;56.232;43.944;2022-09-23T06:48:31;98750.41;;;11.96;88.80
69980;BME280;57318;56.232;43.944;2022-09-23T06:51:02;98749.81;;;12.02;89.20
69980;BME280;57318;56.232;43.944;2022-09-23T06:53:29;98743.66;;;12.02;88.81
69980;BME280;57318;56.232;43.944;2022-09-23T06:56:01;98753.06;;;11.96;89.15
69980;BME280;57318;56.232;43.944;2022-09-23T06:58:29;98753.47;;;12.01;89.17
69980;BME280;57318;56.232;43.944;2022-09-23T07:01:12;98760.59;;;12.01;88.79
69980;BME280;57318;56.232;43.944;2022-09-23T07:03:40;98755.97;;;12.03;89.09
69980;BME280;57318;56.232;43.944;2022-09-23T07:06:06;98757.94;;;12.01;89.01
69980;BME280;57318;56.232;43.944;2022-09-23T07:08:32;98762.00;;;12.05;88.82
69980;BME280;57318;56.232;43.944;2022-09-23T07:11:00;98750.97;;;12.18;88.97
69980;BME280;57318;56.232;43.944;2022-09-23T07:13:27;98743.22;;;12.24;88.70
69980;BME280;57318;56.232;43.944;2022-09-23T07:15:55;98742.00;;;12.37;88.46
69980;BME280;57318;56.232;43.944;2022-09-23T07:18:23;98739.75;;;12.42;88.71
69980;BME280;57318;56.232;43.944;2022-09-23T07:20:53;98743.84;;;12.54;88.30
69980;BME280;57318;56.232;43.944;2022-09-23T07:23:22;98739.59;;;12.61;87.60
69980;BME280;57318;56.232;43.944;2022-09-23T07:25:48;98737.84;;;12.70;87.58
69980;BME280;57318;56.232;43.944;2022-09-23T07:28:18;98731.25;;;12.82;87.35
69980;BME280;57318;56.232;43.944;2022-09-23T07:30:44;98733.91;;;12.82;86.34
69980;BME280;57318;56.232;43.944;2022-09-23T07:33:11;98724.25;;;12.81;86.45
69980;BME280;57318;56.232;43.944;2022-09-23T07:35:40;98733.28;;;12.89;86.51
69980;BME280;57318;56.232;43.944;2022-09-23T07:38:09;98729.59;;;12.81;86.30
69980;BME280;57318;56.232;43.944;2022-09-23T07:40:34;98731.19;;;12.74;86.17
69980;BME280;57318;56.232;43.944;2022-09-23T07:43:00;98739.13;;;12.66;85.58
69980;BME280;57318;56.232;43.944;2022-09-23T07:45:29;98742.09;;;12.63;85.75
69980;BME280;57318;56.232;43.944;2022-09-23T07:47:56;98735.94;;;12.62;85.59
69980;BME280;57318;56.232;43.944;2022-09-23T07:50:22;98742.56;;;12.58;85.36
69980;BME280;57318;56.232;43.944;2022-09-23T07:52:47;98736.91;;;12.61;85.57
69980;BME280;57318;56.232;43.944;2022-09-23T07:55:19;98748.84;;;12.57;85.46
69980;BME280;57318;56.232;43.944;2022-09-23T07:57:45;98752.44;;;12.48;85.47
69980;BME280;57318;56.232;43.944;2022-09-23T08:00:12;98756.09;;;12.47;85.48
69980;BME280;57318;56.232;43.944;2022-09-23T08:02:39;98748.41;;;12.44;85.57
69980;BME280;57318;56.232;43.944;2022-09-23T08:05:05;98752.06;;;12.43;85.33
69980;BME280;57318;56.232;43.944;2022-09-23T08:07:31;98752.50;;;12.38;85.41
69980;BME280;57318;56.232;43.944;2022-09-23T08:09:59;98760.81;;;12.35;85.35
69980;BME280;57318;56.232;43.944;2022-09-23T08:12:25;98764.94;;;12.30;85.12
69980;BME280;57318;56.232;43.944;2022-09-23T08:14:51;98752.97;;;12.34;85.65
69980;BME280;57318;56.232;43.944;2022-09-23T08:17:17;98752.66;;;12.37;85.47
69980;BME280;57318;56.232;43.944;2022-09-23T08:19:44;98751.69;;;12.38;85.53
69980;BME280;57318;56.232;43.944;2022-09-23T08:22:09;98753.81;;;12.34;85.35
69980;BME280;57318;56.232;43.944;2022-09-23T08:24:36;98752.75;;;12.27;85.56
69980;BME280;57318;56.232;43.944;2022-09-23T08:27:02;98740.81;;;12.31;85.70
69980;BME280;57318;56.232;43.944;2022-09-23T08:29:28;98749.16;;;12.36;85.59
69980;BME280;57318;56.232;43.944;2022-09-23T08:31:54;98742.00;;;12.37;85.61
69980;BME280;57318;56.232;43.944;2022-09-23T08:34:21;98738.88;;;12.41;85.42
69980;BME280;57318;56.232;43.944;2022-09-23T08:36:48;98744.63;;;12.47;85.35
69980;BME280;57318;56.232;43.944;2022-09-23T08:39:16;98737.16;;;12.50;85.24
69980;BME280;57318;56.232;43.944;2022-09-23T08:42:03;98739.22;;;12.56;85.04
69980;BME280;57318;56.232;43.944;2022-09-23T08:44:48;98741.88;;;12.56;84.68
69980;BME280;57318;56.232;43.944;2022-09-23T08:47:21;98734.25;;;12.61;84.77
69980;BME280;57318;56.232;43.944;2022-09-23T08:55:11;98724.66;;;12.69;84.30
69980;BME280;57318;56.232;43.944;2022-09-23T09:00:22;98726.00;;;12.73;83.76
69980;BME280;57318;56.232;43.944;2022-09-23T09:02:53;98731.81;;;12.68;83.91
69980;BME280;57318;56.232;43.944;2022-09-23T09:05:23;98730.00;;;12.69;83.50
69980;BME280;57318;56.232;43.944;2022-09-23T09:07:51;98714.31;;;12.66;83.58
69980;BME280;57318;56.232;43.944;2022-09-23T09:10:24;98722.97;;;12.68;83.24
69980;BME280;57318;56.232;43.944;2022-09-23T09:13:05;98720.38;;;12.76;83.34
69980;BME280;57318;56.232;43.944;2022-09-23T09:15:52;98719.53;;;12.75;83.51
69980;BME280;57318;56.232;43.944;2022-09-23T09:18:20;98724.72;;;12.77;83.60
69980;BME280;57318;56.232;43.944;2022-09-23T09:20:59;98728.06;;;12.79;83.22
69980;BME280;57318;56.232;43.944;2022-09-23T09:23:33;98732.94;;;12.84;83.24
69980;BME280;57318;56.232;43.944;2022-09-23T09:26:04;98726.78;;;12.83;82.91
69980;BME280;57318;56.232;43.944;2022-09-23T09:28:47;98729.44;;;12.83;82.88
69980;BME280;57318;56.232;43.944;2022-09-23T09:36:45;98735.22;;;12.78;83.00
69980;BME280;57318;56.232;43.944;2022-09-23T09:39:15;98730.72;;;12.79;83.10
69980;BME280;57318;56.232;43.944;2022-09-23T09:41:46;98729.91;;;12.78;83.01
69980;BME280;57318;56.232;43.944;2022-09-23T09:46:59;98717.56;;;12.77;82.79
69980;BME280;57318;56.232;43.944;2022-09-23T09:50:40;98715.03;;;12.76;82.93
69980;BME280;57318;56.232;43.944;2022-09-23T09:52:35;98710.31;;;12.70;83.41
69980;BME280;57318;56.232;43.944;2022-09-23T09:55:14;98706.38;;;12.74;83.40
69980;BME280;57318;56.232;43.944;2022-09-23T09:57:54;98705.44;;;12.83;82.87
69980;BME280;57318;56.232;43.944;2022-09-23T10:02:54;98708.41;;;12.80;83.14
69980;BME280;57318;56.232;43.944;2022-09-23T10:05:31;98705.66;;;12.90;83.15
69980;BME280;57318;56.232;43.944;2022-09-23T10:08:30;98701.22;;;12.98;82.80
69980;BME280;57318;56.232;43.944;2022-09-23T10:11:12;98697.50;;;12.91;82.79
69980;BME280;57318;56.232;43.944;2022-09-23T10:13:39;98706.88;;;12.77;83.18
69980;BME280;57318;56.232;43.944;2022-09-23T10:16:07;98697.38;;;12.75;83.58
69980;BME280;57318;56.232;43.944;2022-09-23T10:18:47;98691.72;;;12.78;83.59
69980;BME280;57318;56.232;43.944;2022-09-23T10:21:20;98693.41;;;12.79;83.63
69980;BME280;57318;56.232;43.944;2022-09-23T10:23:54;98700.72;;;12.77;84.05
69980;BME280;57318;56.232;43.944;2022-09-23T10:26:31;98707.72;;;12.78;83.74
69980;BME280;57318;56.232;43.944;2022-09-23T10:29:02;98707.72;;;12.78;83.91
69980;BME280;57318;56.232;43.944;2022-09-23T10:31:32;98707.88;;;12.76;83.82
69980;BME280;57318;56.232;43.944;2022-09-23T10:34:18;98699.50;;;12.71;83.86
69980;BME280;57318;56.232;43.944;2022-09-23T10:37:00;98693.34;;;12.71;83.94
69980;BME280;57318;56.232;43.944;2022-09-23T10:39:27;98691.72;;;12.78;83.79
69980;BME280;57318;56.232;43.944;2022-09-23T10:45:36;98700.72;;;12.77;83.53
69980;BME280;57318;56.232;43.944;2022-09-23T10:51:28;98690.28;;;12.84;83.28
69980;BME280;57318;56.232;43.944;2022-09-23T10:53:59;98693.44;;;12.87;83.36
69980;BME280;57318;56.232;43.944;2022-09-23T10:56:48;98688.50;;;12.92;83.18
69980;BME280;57318;56.232;43.944;2022-09-23T11:02:09;98686.31;;;12.88;82.77
69980;BME280;57318;56.232;43.944;2022-09-23T11:07:59;98689.00;;;12.70;83.39
69980;BME280;57318;56.232;43.944;2022-09-23T11:10:47;98679.34;;;12.69;83.38
69980;BME280;57318;56.232;43.944;2022-09-23T11:21:44;98675.41;;;12.55;84.06
69980;BME280;57318;56.232;43.944;2022-09-23T11:30:13;98673.78;;;12.62;83.97
69980;BME280;57318;56.232;43.944;2022-09-23T11:37:45;98663.19;;;12.70;84.02
69980;BME280;57318;56.232;43.944;2022-09-23T11:40:19;98665.22;;;12.76;83.74
69980;BME280;57318;56.232;43.944;2022-09-23T11:43:17;98666.53;;;12.72;83.65
69980;BME280;57318;56.232;43.944;2022-09-23T11:48:23;98669.56;;;12.77;83.33
69980;BME280;57318;56.232;43.944;2022-09-23T11:50:59;98662.88;;;12.73;83.26
69980;BME280;57318;56.232;43.944;2022-09-23T11:53:49;98662.03;;;12.73;83.21
69980;BME280;57318;56.232;43.944;2022-09-23T12:01:40;98662.34;;;12.70;83.13
69980;BME280;57318;56.232;43.944;2022-09-23T12:04:36;98658.19;;;12.67;83.17
69980;BME280;57318;56.232;43.944;2022-09-23T12:24:00;98652.22;;;12.99;82.14
69980;BME280;57318;56.232;43.944;2022-09-23T12:26:30;98653.41;;;13.05;81.55
69980;BME280;57318;56.232;43.944;2022-09-23T12:29:02;98662.38;;;12.96;81.88
69980;BME280;57318;56.232;43.944;2022-09-23T12:31:29;98663.66;;;12.92;81.91
69980;BME280;57318;56.232;43.944;2022-09-23T12:33:58;98661.47;;;12.87;82.08
69980;BME280;57318;56.232;43.944;2022-09-23T12:36:27;98661.47;;;12.87;82.00
69980;BME280;57318;56.232;43.944;2022-09-23T12:39:22;98663.41;;;12.77;82.43
69980;BME280;57318;56.232;43.944;2022-09-23T12:41:58;98657.88;;;12.70;82.73
69980;BME280;57318;56.232;43.944;2022-09-23T12:44:30;98656.28;;;12.59;83.00
69980;BME280;57318;56.232;43.944;2022-09-23T12:49:51;98658.97;;;12.41;83.82
69980;BME280;57318;56.232;43.944;2022-09-23T12:54:47;98660.44;;;12.36;84.39
69980;BME280;57318;56.232;43.944;2022-09-23T12:59:56;98652.34;;;12.27;84.96
69980;BME280;57318;56.232;43.944;2022-09-23T13:05:50;98654.69;;;12.31;85.17
69980;BME280;57318;56.232;43.944;2022-09-23T13:08:37;98647.03;;;12.27;84.85
69980;BME280;57318;56.232;43.944;2022-09-23T13:11:12;98647.03;;;12.27;84.86
69980;BME280;57318;56.232;43.944;2022-09-23T13:13:41;98648.19;;;12.25;85.47
69980;BME280;57318;56.232;43.944;2022-09-23T13:16:33;98648.69;;;12.28;85.23
69980;BME280;57318;56.232;43.944;2022-09-23T13:19:00;98640.41;;;12.32;85.11
69980;BME280;57318;56.232;43.944;2022-09-23T13:26:55;98637.59;;;12.33;84.98
69980;BME280;57318;56.232;43.944;2022-09-23T13:29:36;98641.53;;;12.29;84.92
69980;BME280;57318;56.232;43.944;2022-09-23T13:32:02;98641.69;;;12.27;85.10
69980;BME280;57318;56.232;43.944;2022-09-23T13:34:31;98655.72;;;12.30;85.01
69980;BME280;57318;56.232;43.944;2022-09-23T13:37:12;98645.38;;;12.26;85.18
69980;BME280;57318;56.232;43.944;2022-09-23T13:39:42;98650.53;;;12.28;84.90
69980;BME280;57318;56.232;43.944;2022-09-23T13:42:12;98646.72;;;12.31;84.94
69980;BME280;57318;56.232;43.944;2022-09-23T13:44:41;98645.72;;;12.32;84.48
69980;BME280;57318;56.232;43.944;2022-09-23T13:47:11;98636.75;;;12.33;84.63
69980;BME280;57318;56.232;43.944;2022-09-23T13:49:38;98626.41;;;12.30;84.66
69980;BME280;57318;56.232;43.944;2022-09-23T13:52:25;98635.22;;;12.30;84.95
69980;BME280;57318;56.232;43.944;2022-09-23T13:54:52;98623.03;;;12.27;84.85
69980;BME280;57318;56.232;43.944;2022-09-23T13:59:50;98625.56;;;12.29;84.83
69980;BME280;57318;56.232;43.944;2022-09-23T14:02:16;98628.06;;;12.31;84.67
69980;BME280;57318;56.232;43.944;2022-09-23T14:04:42;98621.53;;;12.25;84.65
69980;BME280;57318;56.232;43.944;2022-09-23T14:07:10;98622.00;;;12.20;85.15
69980;BME280;57318;56.232;43.944;2022-09-23T14:09:45;98618.25;;;12.13;85.40
69980;BME280;57318;56.232;43.944;2022-09-23T14:12:12;98615.22;;;12.08;85.71
69980;BME280;57318;56.232;43.944;2022-09-23T14:14:40;98615.09;;;12.09;85.82
69980;BME280;57318;56.232;43.944;2022-09-23T14:17:07;98621.38;;;12.08;85.87
69980;BME280;57318;56.232;43.944;2022-09-23T14:19:35;98625.44;;;12.13;85.67
69980;BME280;57318;56.232;43.944;2022-09-23T14:22:02;98627.16;;;12.04;86.40
69980;BME280;57318;56.232;43.944;2022-09-23T14:24:32;98629.00;;;12.03;86.37
69980;BME280;57318;56.232;43.944;2022-09-23T14:27:03;98627.00;;;12.05;86.36
69980;BME280;57318;56.232;43.944;2022-09-23T14:29:36;98627.31;;;12.02;86.41
69980;BME280;57318;56.232;43.944;2022-09-23T14:32:15;98625.09;;;11.98;86.33
69980;BME280;57318;56.232;43.944;2022-09-23T14:40:02;98628.69;;;11.88;86.54
69980;BME280;57318;56.232;43.944;2022-09-23T14:42:35;98631.63;;;11.85;86.68
69980;BME280;57318;56.232;43.944;2022-09-23T14:45:04;98636.97;;;11.85;86.56
69980;BME280;57318;56.232;43.944;2022-09-23T14:47:32;98637.56;;;11.79;86.98
69980;BME280;57318;56.232;43.944;2022-09-23T14:49:59;98627.75;;;11.80;87.09
69980;BME280;57318;56.232;43.944;2022-09-23T14:52:50;98635.88;;;11.78;86.85
69980;BME280;57318;56.232;43.944;2022-09-23T14:55:16;98625.00;;;11.71;87.58
69980;BME280;57318;56.232;43.944;2022-09-23T14:57:43;98630.84;;;11.75;87.25
69980;BME280;57318;56.232;43.944;2022-09-23T15:00:16;98627.22;;;11.76;87.42
69980;BME280;57318;56.232;43.944;2022-09-23T15:03:09;98621.91;;;11.76;87.45
69980;BME280;57318;56.232;43.944;2022-09-23T15:05:43;98621.91;;;11.76;87.20
69980;BME280;57318;56.232;43.944;2022-09-23T15:08:19;98606.81;;;11.67;87.46
69980;BME280;57318;56.232;43.944;2022-09-23T15:10:46;98603.16;;;11.68;87.64
69980;BME280;57318;56.232;43.944;2022-09-23T15:13:25;98597.00;;;11.67;87.84
69980;BME280;57318;56.232;43.944;2022-09-23T15:15:52;98599.97;;;11.64;87.54
69980;BME280;57318;56.232;43.944;2022-09-23T15:18:24;98592.59;;;11.58;88.17
69980;BME280;57318;56.232;43.944;2022-09-23T15:20:56;98587.13;;;11.60;88.02
69980;BME280;57318;56.232;43.944;2022-09-23T15:23:42;98585.31;;;11.60;87.98